Startpagina
METAR-TAF:

METAR-TAF

Vliegvelden :

Vliegbasis Chièvres

Chièvres, België

breedte: 50-34N, lengte: 003-50E, hoogte: 60 m

Actueel weer

Dit bericht is 27 minuten geleden gemaakt, om 06:25 UTC
Wind 5 kt uit het zuidzuidoosten
Temperatuur 7°C
Vochtigheid 87%
Druk 1021 hPa

METAR: EBCV 180625Z AUTO 16005KT //// /// 07/05 Q1021

Tijdstip: 08:52 (06:52 UTC)

Verwachting

Dit bericht is 1 uur en het 11 minuten geleden gemaakt, om 05:41 UTC
Verwachting geldig van 18 om 07 UTC tot 18 om 16 UTC
Wind 7 kt uit het zuiden
Zicht 10 km of meer
Verspreide wolken op 25000 ft
Wijzigt naar
van 18 om 12 UTC tot 18 om 14 UTC
Wind 9 kt uit het zuiden
Weinig wolken op 5000 ft
Gebroken wolken op 18000 ft

TAF: EBCV 180541Z 1807/1816 17007KT 9999 SCT250 BECMG 1812/1814 19009KT FEW050 BKN180 BY EBWM

Waarnemingen en weersverwachtingen van meer dan 4000 vliegvelden (METAR en TAF).

De beschikbare stations zijn de gele en rode punten op de kaart.

Ga met uw muis naar het station om de naam te zien.

Klik dan om waarnemingen en weersverwachtingen te zien.

kaart wijzigen: klik op de groene knoppen met een zwart kruis om in te zoomen, op de groene knop met een streepje om uit te zoomen of op de groene pijlen voor aangrenzende kaarten.


METAR-TAF: